Time;durP1;ratioP1;P1;durP2;ratioP2;P2;SDS_P1;SDS_P2;PMS_P1;PMS_P2;Temp;Humidity;BMP_temperature;BMP_pressure;BME280_temperature;BME280_humidity;BME280_pressure;Samples;Min_cycle;Max_cycle;Signal;HPM_P1;HPM_P2
2023/02/12 00:00:50;;;;;;;45.90;31.50;;;;;;;5.23;73.54;100199.75;235145;1194;139227;-65
2023/02/12 00:06:53;;;;;;;;;;;;;;;;;;;;;
2023/02/12 00:19:30;;;;;;;41.10;27.10;;;;;;;5.43;73.64;100200.01;235135;1193;139619;-64
2023/02/12 00:26:51;;;;;;;;;;;;;;;;;;;;;
2023/02/12 00:32:41;;;;;;;;;;;;;;;;;;;;;
2023/02/12 00:39:31;;;;;;;;;;;;;;;;;;;;;
2023/02/12 01:11:51;;;;;;;35.00;22.40;;;;;;;5.78;72.89;100225.80;235007;1198;139090;-72
2023/02/12 01:18:18;;;;;;;;;;;;;;;;;;;;;
2023/02/12 04:29:31;;;;;;;15.40;9.50;;;;;;;6.14;71.67;100512.89;235559;1191;647988;-69
2023/02/12 04:35:57;;;;;;;17.70;10.20;;;;;;;6.18;71.41;100523.90;239380;1184;138730;-72
2023/02/12 04:41:30;;;;;;;18.00;9.30;;;;;;;6.14;71.00;100534.90;239458;1184;138859;-71
2023/02/12 05:38:33;;;;;;;10.40;5.50;;;;;;;5.18;68.24;100633.86;239357;1184;139714;-70
2023/02/12 06:20:58;;;;;;;;;;;;;;;;;;;;;
2023/02/12 06:49:31;;;;;;;;;;;;;;;;;;;;;
2023/02/12 06:56:09;;;;;;;;;;;;;;;;;;;;;
2023/02/12 07:02:59;;;;;;;8.50;4.20;;;;;;;5.06;67.21;100761.92;240083;1180;138367;-67
2023/02/12 07:08:23;;;;;;;7.90;4.20;;;;;;;4.99;66.70;100773.08;240098;1179;137932;-67
2023/02/12 07:14:28;;;;;;;;;;;;;;;;;;;;;
2023/02/12 07:20:09;;;;;;;6.60;3.40;;;;;;;5.01;66.30;100791.17;240184;1179;138253;-66
2023/02/12 07:26:43;;;;;;;7.90;3.50;;;;;;;4.98;66.24;100797.19;240220;1180;140403;-66
2023/02/12 07:32:02;;;;;;;5.90;3.10;;;;;;;4.96;65.88;100807.77;240213;1180;138271;-67
2023/02/12 07:37:21;;;;;;;5.00;2.90;;;;;;;4.95;65.64;100817.10;240199;1180;138820;-67
2023/02/12 07:43:45;;;;;;;4.20;2.60;;;;;;;4.90;64.71;100825.77;240172;1180;138298;-68
2023/02/12 07:49:32;;;;;;;;;;;;;;;;;;;;;
2023/02/12 07:55:22;;;;;;;6.10;3.10;;;;;;;4.83;64.00;100843.08;240065;1180;138828;-65
2023/02/12 08:01:21;;;;;;;;;;;;;;;4.84;63.92;100852.20;239803;1180;138774;-64
2023/02/12 08:07:52;;;;;;;6.80;4.30;;;;;;;4.96;63.46;100864.05;240032;1178;124569;-65
2023/02/12 08:28:01;;;;;;;5.00;2.60;;;;;;;4.89;61.81;100862.17;239835;1179;138721;-72
2023/02/12 08:33:29;;;;;;;19.50;10.60;;;;;;;4.90;62.03;100866.92;240216;1179;138541;-69
2023/02/12 08:39:30;;;;;;;4.80;2.70;;;;;;;4.91;61.62;100874.81;240100;1180;138623;-69
2023/02/12 08:44:52;;;;;;;;;;;;;;;;;;;;;
2023/02/12 08:50:47;;;;;;;11.60;6.30;;;;;;;4.87;60.67;100881.90;240190;1180;139263;-71
2023/02/12 08:57:04;;;;;;;7.20;4.70;;;;;;;4.97;60.95;100883.74;240188;1181;138455;-69
2023/02/12 09:02:51;;;;;;;;;;;;;;;4.95;60.12;100899.59;240117;1178;137950;-67
2023/02/12 09:08:55;;;;;;;4.80;2.60;;;;;;;4.93;59.65;100909.63;240250;1180;125392;-66
2023/02/12 09:15:07;;;;;;;5.80;2.80;;;;;;;4.92;60.38;100920.36;240163;1180;138356;-72
2023/02/12 09:21:12;;;;;;;4.70;2.70;;;;;;;4.92;60.15;100930.91;240120;1182;138128;-64
2023/02/12 09:42:17;;;;;;;188.30;114.20;;;;;;;4.88;60.72;100956.80;239618;1184;138799;-65
2023/02/12 09:55:01;;;;;;;5.60;3.20;;;;;;;4.94;59.11;100960.62;238025;1190;138404;-68
2023/02/12 10:00:44;;;;;;;;;;;;;;;;;;;;;
2023/02/12 10:06:38;;;;;;;5.10;2.80;;;;;;;4.85;59.22;100964.39;239346;1183;138799;-69
2023/02/12 10:12:15;;;;;;;;;;;;;;;;;;;;;
2023/02/12 10:18:33;;;;;;;5.90;3.30;;;;;;;5.02;59.37;100970.23;240266;1180;138722;-68
2023/02/12 10:24:47;;;;;;;;;;;;;;;;;;;;;
2023/02/12 10:30:19;;;;;;;;;;;;;;;;;;;;;
2023/02/12 10:37:00;;;;;;;40.10;25.00;;;;;;;5.29;59.54;100979.50;240464;1177;138526;-66
2023/02/12 10:43:02;;;;;;;6.90;4.30;;;;;;;5.46;59.37;100978.11;240424;1177;139394;-66
2023/02/12 10:48:26;;;;;;;5.00;3.00;;;;;;;5.43;58.04;100978.84;240651;1177;138329;-69
2023/02/12 10:54:20;;;;;;;83.60;52.90;;;;;;;5.60;59.60;100976.38;240513;1179;137834;-67
2023/02/12 11:00:06;;;;;;;7.00;4.20;;;;;;;5.86;58.03;100967.11;240489;1177;138652;-70
2023/02/12 11:06:00;;;;;;;4.80;3.30;;;;;;;5.92;56.99;100957.71;240226;1177;138268;-67
2023/02/12 11:11:31;;;;;;;311.20;197.00;;;;;;;6.10;56.90;100953.83;240397;1178;139190;-67
2023/02/12 11:17:21;;;;;;;12.40;7.80;;;;;;;6.13;56.96;100960.48;240388;1177;139251;-67
2023/02/12 11:23:32;;;;;;;7.50;3.80;;;;;;;6.18;56.38;100959.52;240759;1177;138212;-66
2023/02/12 11:29:19;;;;;;;5.10;3.40;;;;;;;6.26;56.88;100971.05;240441;1177;138770;-68
2023/02/12 11:35:04;;;;;;;5.60;3.40;;;;;;;6.35;56.10;100975.88;240418;1177;138059;-68
2023/02/12 11:47:28;;;;;;;7.30;4.40;;;;;;;6.72;54.76;100968.65;240428;1177;138252;-65
2023/02/12 11:54:13;;;;;;;;;;;;;;;;;;;;;
2023/02/12 12:00:08;;;;;;;6.70;4.10;;;;;;;6.72;52.58;100964.76;240469;1177;138841;-64
2023/02/12 12:05:52;;;;;;;30.90;24.20;;;;;;;6.82;52.16;100959.65;240321;1177;138384;-66
2023/02/12 12:12:04;;;;;;;7.60;5.10;;;;;;;7.09;52.92;100958.35;240280;1177;138844;-65
2023/02/12 12:24:15;;;;;;;8.90;5.40;;;;;;;7.23;51.70;100947.69;240649;1177;138034;-64
2023/02/12 12:30:07;;;;;;;8.40;4.80;;;;;;;7.42;51.30;100943.11;240578;1177;138406;-64
2023/02/12 12:36:07;;;;;;;7.60;4.80;;;;;;;7.49;50.58;100942.27;240327;1177;138380;-65
2023/02/12 12:49:15;;;;;;;8.70;4.60;;;;;;;7.79;49.83;100933.73;240587;1177;138634;-64
2023/02/12 12:55:12;;;;;;;7.40;4.80;;;;;;;7.93;50.25;100935.41;240296;1177;138131;-65
2023/02/12 13:02:40;;;;;;;;;;;;;;;;;;;;;
2023/02/12 13:08:20;;;;;;;12.40;6.30;;;;;;;8.25;49.14;100934.90;234466;1201;149193;-65
2023/02/12 13:14:02;;;;;;;8.80;5.50;;;;;;;8.23;48.66;100937.76;234822;1193;138668;-65
2023/02/12 13:20:32;;;;;;;7.50;5.50;;;;;;;8.34;49.35;100948.50;234984;1195;138563;-65
2023/02/12 13:26:38;;;;;;;7.80;5.60;;;;;;;8.50;49.70;100954.00;235176;1196;138089;-64
2023/02/12 13:32:25;;;;;;;9.10;5.50;;;;;;;8.58;49.09;100949.91;235037;1199;138550;-63
2023/02/12 13:38:08;;;;;;;9.80;6.10;;;;;;;8.66;48.70;100946.21;235195;1197;139303;-65
2023/02/12 13:50:52;;;;;;;;;;;;;;;;;;;;;
2023/02/12 13:56:40;;;;;;;8.60;6.40;;;;;;;8.61;48.04;100954.80;235122;1196;138156;-64
2023/02/12 14:03:49;;;;;;;;;;;;;;;;;;;;;
2023/02/12 14:09:34;;;;;;;9.70;6.50;;;;;;;8.10;48.86;100959.08;234858;1197;138159;-65
2023/02/12 14:21:53;;;;;;;12.40;6.60;;;;;;;7.60;49.87;100965.19;235038;1197;139458;-64
2023/02/12 14:27:32;;;;;;;10.10;7.10;;;;;;;7.40;50.56;100965.74;235327;1197;138850;-63
2023/02/12 14:40:35;;;;;;;70.20;45.50;;;;;;;7.02;51.44;100955.10;235230;1196;139251;-63
2023/02/12 14:45:42;;;;;;;23.30;16.10;;;;;;;7.01;54.08;100953.70;235136;1193;139025;-64
2023/02/12 14:51:19;;;;;;;10.30;7.40;;;;;;;7.00;51.90;100950.38;235196;1193;138603;-64
2023/02/12 14:57:19;;;;;;;;;;;;;;;;;;;;;
2023/02/12 15:02:57;;;;;;;14.40;9.00;;;;;;;6.65;52.10;100956.23;235427;1197;138611;-64
2023/02/12 15:09:01;;;;;;;;;;;;;;;;;;;;;
2023/02/12 15:15:09;;;;;;;12.10;8.20;;;;;;;6.52;52.46;100962.94;235365;1198;139263;-65
2023/02/12 15:21:32;;;;;;;;;;;;;;;;;;;;;
2023/02/12 15:27:47;;;;;;;19.70;12.20;;;;;;;6.48;52.37;100966.69;235387;1194;138458;-66
2023/02/12 15:33:52;;;;;;;;;;;;;;;;;;;;;
2023/02/12 15:39:46;;;;;;;20.00;10.90;;;;;;;6.32;53.66;100969.02;235598;1193;139502;-65
2023/02/12 15:45:15;;;;;;;17.80;11.10;;;;;;;6.18;53.01;100975.20;235560;1193;139032;-66
2023/02/12 15:50:32;;;;;;;15.80;11.00;;;;;;;6.06;52.97;100982.59;235491;1193;138788;-63
2023/02/12 15:55:53;;;;;;;16.80;10.20;;;;;;;5.96;53.51;100984.29;235416;1193;139049;-65
2023/02/12 16:02:07;;;;;;;18.00;11.00;;;;;;;5.85;53.45;100993.73;235341;1196;139023;-67
2023/02/12 16:08:31;;;;;;;15.30;10.50;;;;;;;5.74;53.83;100991.38;235390;1193;141801;-66
2023/02/12 16:14:33;;;;;;;22.20;13.30;;;;;;;5.56;54.43;100992.98;235315;1193;161099;-67
2023/02/12 16:20:42;;;;;;;17.30;11.20;;;;;;;5.53;54.43;100999.16;235333;1193;138962;-64
2023/02/12 16:26:20;;;;;;;32.50;20.70;;;;;;;5.70;54.94;101002.69;235526;1193;138830;-65
2023/02/12 16:32:36;;;;;;;16.30;11.00;;;;;;;5.83;54.76;101008.19;235419;1196;139106;-66
2023/02/12 16:38:59;;;;;;;20.30;11.50;;;;;;;5.84;54.28;101024.92;235524;1193;139335;-66
2023/02/12 16:45:16;;;;;;;19.80;11.80;;;;;;;5.81;54.36;101033.92;235824;1193;138994;-66
2023/02/12 16:52:12;;;;;;;20.10;12.00;;;;;;;5.83;54.46;101039.18;235730;1193;139164;-65
2023/02/12 16:57:29;;;;;;;;;;;;;;;;;;;;;
2023/02/12 17:02:55;;;;;;;64.30;41.00;;;;;;;5.72;55.32;101038.06;235698;1193;138887;-66
2023/02/12 17:08:52;;;;;;;;;;;;;;;;;;;;;
2023/02/12 17:15:08;;;;;;;17.00;9.10;;;;;;;5.64;55.30;101042.72;235571;1193;138722;-65
2023/02/12 17:21:37;;;;;;;16.60;8.60;;;;;;;5.58;55.68;101048.41;235556;1193;138825;-66
2023/02/12 17:27:47;;;;;;;15.00;7.90;;;;;;;5.47;55.83;101060.48;235745;1194;138553;-66
2023/02/12 17:40:38;;;;;;;;;;;;;;;;;;;;;
2023/02/12 17:46:01;;;;;;;13.80;7.60;;;;;;;5.21;56.70;101049.27;235340;1193;138799;-66
2023/02/12 17:51:45;;;;;;;;;;;;;;;;;;;;;
2023/02/12 17:57:45;;;;;;;16.30;8.00;;;;;;;5.08;57.27;101050.77;235617;1193;138525;-65
2023/02/12 18:03:56;;;;;;;;;;;;;;;;;;;;;
2023/02/12 18:09:33;;;;;;;;;;;;;;;;;;;;;
2023/02/12 18:15:20;;;;;;;;;;;;;;;;;;;;;
2023/02/12 18:20:33;;;;;;;17.50;9.80;;;;;;;4.97;57.48;101045.73;235559;1192;138809;-64
2023/02/12 18:26:45;;;;;;;16.60;9.30;;;;;;;4.99;57.89;101050.47;235580;1192;138523;-66
2023/02/12 18:32:38;;;;;;;16.80;9.60;;;;;;;4.92;57.73;101047.87;235486;1193;139587;-65
2023/02/12 18:38:20;;;;;;;18.40;10.10;;;;;;;4.85;57.87;101049.15;235558;1192;139090;-66
2023/02/12 18:44:27;;;;;;;17.00;9.90;;;;;;;4.85;57.80;101048.27;235589;1193;138562;-65
2023/02/12 18:50:30;;;;;;;21.20;10.70;;;;;;;4.65;58.32;101045.23;235502;1192;138945;-66
2023/02/12 18:56:16;;;;;;;19.30;10.60;;;;;;;4.44;58.50;101044.09;235690;1193;138940;-66
2023/02/12 19:02:15;;;;;;;;;;;;;;;;;;;;;
2023/02/12 19:08:41;;;;;;;;;;;;;;;;;;;;;
2023/02/12 19:14:57;;;;;;;19.90;11.30;;;;;;;4.54;59.64;101042.10;235551;1193;139339;-65
2023/02/12 19:20:42;;;;;;;;;;;;;;;;;;;;;
2023/02/12 19:26:45;;;;;;;;;;;;;;;;;;;;;
2023/02/12 19:33:11;;;;;;;28.20;17.10;;;;;;;4.66;59.50;101042.40;235665;1192;138544;-68
2023/02/12 19:39:28;;;;;;;29.50;18.10;;;;;;;4.66;59.61;101035.02;235440;1192;141129;-68
2023/02/12 19:45:32;;;;;;;31.50;18.50;;;;;;;4.64;59.55;101020.09;235477;1192;138214;-68
2023/02/12 19:51:28;;;;;;;73.20;45.10;;;;;;;4.63;60.49;101016.95;235436;1193;138530;-68
2023/02/12 20:02:30;;;;;;;;;;;;;;;;;;;;;
2023/02/12 20:08:55;;;;;;;77.50;50.50;;;;;;;4.78;59.69;101023.70;234692;1199;138493;-68
2023/02/12 20:15:04;;;;;;;;;;;;;;;;;;;;;
2023/02/12 20:21:54;;;;;;;38.10;21.70;;;;;;;4.88;59.81;101026.45;234775;1196;138571;-65
2023/02/12 20:27:56;;;;;;;;;;;;;;;;;;;;;
2023/02/12 20:34:04;;;;;;;35.40;20.80;;;;;;;4.82;59.54;101033.52;234818;1198;138383;-64
2023/02/12 20:40:12;;;;;;;33.90;21.10;;;;;;;4.71;59.91;101033.95;234806;1199;138225;-64
2023/02/12 20:46:09;;;;;;;40.90;22.40;;;;;;;4.60;59.96;101031.19;235549;1193;138008;-66
2023/02/12 20:52:28;;;;;;;38.40;21.80;;;;;;;4.58;60.20;101036.13;235445;1192;137692;-64
2023/02/12 21:01:40;;;;;;;40.40;23.00;;;;;;;4.59;60.17;101019.41;232148;1214;634994;-72
2023/02/12 21:06:44;;;;;;;40.40;24.10;;;;;;;4.55;60.06;101024.55;235287;1196;137809;-72
2023/02/12 21:11:48;;;;;;;41.20;24.00;;;;;;;4.53;60.33;101029.13;232554;1195;137926;-73
2023/02/12 21:16:53;;;;;;;44.20;25.00;;;;;;;4.51;60.51;101025.96;232844;1196;138046;-70
2023/02/12 21:21:57;;;;;;;45.20;25.40;;;;;;;4.54;60.12;101022.97;231829;1197;138176;-72
2023/02/12 21:27:00;;;;;;;43.90;25.40;;;;;;;4.59;60.27;101025.57;229293;1196;137967;-73
2023/02/12 21:32:04;;;;;;;43.00;24.60;;;;;;;4.59;60.78;101031.02;228739;1199;138567;-72
2023/02/12 21:37:07;;;;;;;45.40;26.80;;;;;;;4.55;60.74;101034.55;228976;1198;138051;-72
2023/02/12 21:42:10;;;;;;;48.00;26.60;;;;;;;4.48;60.80;101035.82;231685;1193;138526;-71
2023/02/12 21:47:14;;;;;;;43.40;26.60;;;;;;;4.39;61.04;101035.86;231572;1198;138467;-73
2023/02/12 21:52:17;;;;;;;55.20;29.10;;;;;;;4.35;61.84;101035.36;233899;1196;138835;-72
2023/02/12 21:57:21;;;;;;;51.30;28.80;;;;;;;4.33;61.95;101032.56;233370;1193;139163;-75
2023/02/12 22:02:24;;;;;;;47.40;27.20;;;;;;;4.35;62.32;101035.88;235238;1196;138413;-73
2023/02/12 22:07:28;;;;;;;44.30;25.00;;;;;;;4.42;62.41;101040.77;234164;1198;138257;-72
2023/02/12 22:12:33;;;;;;;46.80;26.70;;;;;;;4.46;62.26;101044.09;229930;1199;139130;-71
2023/02/12 22:17:37;;;;;;;46.50;25.50;;;;;;;4.49;62.50;101046.55;230136;1195;140724;-71
2023/02/12 22:22:40;;;;;;;48.70;26.70;;;;;;;4.52;62.48;101051.45;230595;1196;138908;-72
2023/02/12 22:27:44;;;;;;;48.40;28.00;;;;;;;4.50;62.52;101049.34;228791;1196;138109;-73
2023/02/12 22:32:48;;;;;;;49.30;26.80;;;;;;;4.51;62.79;101049.86;229325;1196;139078;-72
2023/02/12 22:37:51;;;;;;;50.10;28.10;;;;;;;4.47;62.92;101052.70;235066;1196;138519;-72
2023/02/12 22:42:55;;;;;;;59.00;32.50;;;;;;;4.48;63.03;101055.69;233713;1193;138646;-72
2023/02/12 22:47:58;;;;;;;58.40;33.00;;;;;;;4.55;62.99;101058.29;229548;1193;138578;-72
2023/02/12 22:53:02;;;;;;;58.40;32.10;;;;;;;4.59;62.91;101052.46;228926;1198;138283;-70
2023/02/12 22:58:06;;;;;;;56.80;33.40;;;;;;;4.60;62.76;101046.48;230767;1194;139663;-69
2023/02/12 23:03:09;;;;;;;59.90;32.60;;;;;;;4.52;63.30;101054.08;232360;1192;138400;-75
2023/02/12 23:08:12;;;;;;;59.10;33.20;;;;;;;4.52;63.30;101051.80;235169;1195;138402;-77
2023/02/12 23:13:16;;;;;;;62.40;34.40;;;;;;;4.58;63.47;101050.36;233717;1192;138293;-70
2023/02/12 23:18:31;;;;;;;60.50;33.90;;;;;;;4.68;63.51;101046.45;234347;1193;138477;-71
2023/02/12 23:23:35;;;;;;;59.30;33.90;;;;;;;4.70;63.06;101036.41;232849;1193;138243;-70
2023/02/12 23:28:38;;;;;;;63.20;34.80;;;;;;;4.71;63.31;101040.25;235534;1193;138186;-72
2023/02/12 23:33:42;;;;;;;65.10;35.80;;;;;;;4.69;63.33;101032.72;235289;1193;138364;-72
2023/02/12 23:38:46;;;;;;;65.00;36.10;;;;;;;4.69;63.34;101027.81;229799;1196;138701;-72
2023/02/12 23:43:49;;;;;;;60.10;33.00;;;;;;;4.70;63.40;101030.79;232799;1193;138571;-71
2023/02/12 23:48:53;;;;;;;64.20;37.70;;;;;;;4.65;63.43;101034.33;231129;1193;138978;-72
2023/02/12 23:53:56;;;;;;;69.40;37.20;;;;;;;4.62;63.40;101036.64;231057;1192;138757;-74
2023/02/12 23:58:59;;;;;;;67.60;37.80;;;;;;;4.61;63.67;101038.74;234171;1196;138153;-72
